sensor_id;sensor_type;location;lat;lon;timestamp;P1;durP1;ratioP1;P2;durP2;ratioP2
22441;SDS011;11388;54.456;9.752;2024-01-07T05:11:39;5.45;;;1.90;;
22441;SDS011;11388;54.456;9.752;2024-01-07T06:01:57;3.05;;;1.60;;
22441;SDS011;11388;54.456;9.752;2024-01-07T06:42:29;2.35;;;1.30;;
22441;SDS011;11388;54.456;9.752;2024-01-07T06:45:17;4.13;;;1.40;;
22441;SDS011;11388;54.456;9.752;2024-01-07T06:47:56;4.10;;;1.55;;
22441;SDS011;11388;54.456;9.752;2024-01-07T06:50:44;3.35;;;1.38;;
22441;SDS011;11388;54.456;9.752;2024-01-07T06:53:21;2.10;;;1.20;;
22441;SDS011;11388;54.456;9.752;2024-01-07T07:18:00;2.78;;;1.55;;
22441;SDS011;11388;54.456;9.752;2024-01-07T07:24:20;2.85;;;1.52;;
22441;SDS011;11388;54.456;9.752;2024-01-07T07:27:26;4.03;;;1.90;;
22441;SDS011;11388;54.456;9.752;2024-01-07T07:32:55;4.65;;;1.70;;
22441;SDS011;11388;54.456;9.752;2024-01-07T07:35:48;3.13;;;1.70;;
22441;SDS011;11388;54.456;9.752;2024-01-07T07:39:16;4.28;;;1.40;;
22441;SDS011;11388;54.456;9.752;2024-01-07T07:42:22;4.68;;;1.70;;
22441;SDS011;11388;54.456;9.752;2024-01-07T07:45:22;4.68;;;1.40;;
22441;SDS011;11388;54.456;9.752;2024-01-07T07:48:15;3.35;;;1.40;;
22441;SDS011;11388;54.456;9.752;2024-01-07T07:50:57;3.30;;;1.40;;
22441;SDS011;11388;54.456;9.752;2024-01-07T07:53:40;2.35;;;1.20;;
22441;SDS011;11388;54.456;9.752;2024-01-07T07:59:33;2.78;;;1.30;;
22441;SDS011;11388;54.456;9.752;2024-01-07T15:45:34;4.38;;;2.38;;
22441;SDS011;11388;54.456;9.752;2024-01-07T15:48:38;4.22;;;2.00;;
22441;SDS011;11388;54.456;9.752;2024-01-07T15:51:10;4.40;;;2.08;;
22441;SDS011;11388;54.456;9.752;2024-01-07T15:59:03;8.98;;;2.45;;
22441;SDS011;11388;54.456;9.752;2024-01-07T16:44:11;16.42;;;3.72;;
22441;SDS011;11388;54.456;9.752;2024-01-07T16:46:44;4.00;;;2.67;;
22441;SDS011;11388;54.456;9.752;2024-01-07T16:49:15;5.47;;;3.20;;
22441;SDS011;11388;54.456;9.752;2024-01-07T16:51:51;7.93;;;3.10;;
22441;SDS011;11388;54.456;9.752;2024-01-07T16:54:22;4.68;;;2.70;;
22441;SDS011;11388;54.456;9.752;2024-01-07T16:57:04;5.60;;;2.92;;
22441;SDS011;11388;54.456;9.752;2024-01-07T16:59:43;21.77;;;4.68;;
22441;SDS011;11388;54.456;9.752;2024-01-07T17:02:14;49.53;;;6.10;;
22441;SDS011;11388;54.456;9.752;2024-01-07T17:04:44;10.52;;;3.33;;
22441;SDS011;11388;54.456;9.752;2024-01-07T17:07:12;4.05;;;2.67;;
22441;SDS011;11388;54.456;9.752;2024-01-07T17:09:43;5.47;;;2.70;;
22441;SDS011;11388;54.456;9.752;2024-01-07T17:12:24;3.65;;;2.40;;
22441;SDS011;11388;54.456;9.752;2024-01-07T17:14:58;13.20;;;3.63;;
22441;SDS011;11388;54.456;9.752;2024-01-07T17:17:54;7.68;;;2.80;;
22441;SDS011;11388;54.456;9.752;2024-01-07T17:21:10;17.27;;;4.28;;
22441;SDS011;11388;54.456;9.752;2024-01-07T17:24:46;32.92;;;4.95;;
22441;SDS011;11388;54.456;9.752;2024-01-07T17:27:35;28.38;;;4.53;;
22441;SDS011;11388;54.456;9.752;2024-01-07T17:30:24;38.72;;;5.00;;
22441;SDS011;11388;54.456;9.752;2024-01-07T17:33:38;22.45;;;4.32;;
22441;SDS011;11388;54.456;9.752;2024-01-07T17:36:10;9.57;;;3.20;;
22441;SDS011;11388;54.456;9.752;2024-01-07T17:38:47;28.23;;;5.13;;
22441;SDS011;11388;54.456;9.752;2024-01-07T17:41:24;60.50;;;6.97;;
22441;SDS011;11388;54.456;9.752;2024-01-07T17:47:23;58.92;;;6.30;;
22441;SDS011;11388;54.456;9.752;2024-01-07T17:50:20;16.75;;;3.80;;
22441;SDS011;11388;54.456;9.752;2024-01-07T18:01:26;15.85;;;4.47;;
22441;SDS011;11388;54.456;9.752;2024-01-07T18:07:04;10.43;;;3.45;;
22441;SDS011;11388;54.456;9.752;2024-01-07T19:20:07;4.88;;;2.92;;
22441;SDS011;11388;54.456;9.752;2024-01-07T19:25:11;6.72;;;3.03;;
22441;SDS011;11388;54.456;9.752;2024-01-07T19:27:52;5.22;;;2.90;;
22441;SDS011;11388;54.456;9.752;2024-01-07T19:31:00;6.72;;;2.95;;
22441;SDS011;11388;54.456;9.752;2024-01-07T19:36:44;8.60;;;3.22;;
22441;SDS011;11388;54.456;9.752;2024-01-07T20:05:41;4.68;;;3.30;;
22441;SDS011;11388;54.456;9.752;2024-01-07T20:08:43;12.30;;;4.07;;
22441;SDS011;11388;54.456;9.752;2024-01-07T20:11:19;5.75;;;3.58;;
22441;SDS011;11388;54.456;9.752;2024-01-07T20:13:49;7.07;;;3.80;;
22441;SDS011;11388;54.456;9.752;2024-01-07T20:16:18;6.45;;;3.70;;
22441;SDS011;11388;54.456;9.752;2024-01-07T20:18:57;8.63;;;3.92;;
22441;SDS011;11388;54.456;9.752;2024-01-07T20:21:50;20.83;;;5.03;;
22441;SDS011;11388;54.456;9.752;2024-01-07T20:24:26;26.23;;;5.38;;
22441;SDS011;11388;54.456;9.752;2024-01-07T20:30:10;14.55;;;4.78;;
22441;SDS011;11388;54.456;9.752;2024-01-07T20:36:10;10.07;;;3.90;;
22441;SDS011;11388;54.456;9.752;2024-01-07T20:38:53;11.68;;;4.28;;
22441;SDS011;11388;54.456;9.752;2024-01-07T20:41:22;5.80;;;3.53;;
22441;SDS011;11388;54.456;9.752;2024-01-07T20:49:45;6.30;;;3.30;;
22441;SDS011;11388;54.456;9.752;2024-01-07T20:52:31;6.50;;;3.75;;
22441;SDS011;11388;54.456;9.752;2024-01-07T20:55:17;7.60;;;3.50;;
22441;SDS011;11388;54.456;9.752;2024-01-07T20:57:45;8.25;;;3.63;;
22441;SDS011;11388;54.456;9.752;2024-01-07T21:06:40;4.03;;;3.03;;
22441;SDS011;11388;54.456;9.752;2024-01-07T21:09:24;6.57;;;3.55;;
22441;SDS011;11388;54.456;9.752;2024-01-07T21:12:03;5.00;;;3.15;;
22441;SDS011;11388;54.456;9.752;2024-01-07T21:14:49;5.57;;;3.22;;
22441;SDS011;11388;54.456;9.752;2024-01-07T21:17:31;4.38;;;3.20;;
22441;SDS011;11388;54.456;9.752;2024-01-07T21:20:10;5.75;;;3.35;;
22441;SDS011;11388;54.456;9.752;2024-01-07T21:22:53;6.85;;;3.10;;
22441;SDS011;11388;54.456;9.752;2024-01-07T21:25:24;4.93;;;3.08;;
22441;SDS011;11388;54.456;9.752;2024-01-07T21:28:02;5.75;;;2.80;;
22441;SDS011;11388;54.456;9.752;2024-01-07T21:33:12;6.90;;;2.95;;
22441;SDS011;11388;54.456;9.752;2024-01-07T21:35:45;4.32;;;2.80;;
22441;SDS011;11388;54.456;9.752;2024-01-07T21:38:35;4.50;;;2.85;;
22441;SDS011;11388;54.456;9.752;2024-01-07T21:41:06;4.40;;;2.95;;
22441;SDS011;11388;54.456;9.752;2024-01-07T21:43:39;5.75;;;2.72;;
22441;SDS011;11388;54.456;9.752;2024-01-07T21:46:10;5.10;;;2.80;;
22441;SDS011;11388;54.456;9.752;2024-01-07T21:48:42;5.07;;;2.90;;
22441;SDS011;11388;54.456;9.752;2024-01-07T21:51:33;5.53;;;3.08;;
22441;SDS011;11388;54.456;9.752;2024-01-07T21:54:25;4.55;;;2.72;;
22441;SDS011;11388;54.456;9.752;2024-01-07T21:57:08;6.65;;;2.75;;
22441;SDS011;11388;54.456;9.752;2024-01-07T21:59:44;4.40;;;2.90;;
22441;SDS011;11388;54.456;9.752;2024-01-07T22:02:10;4.15;;;2.70;;
22441;SDS011;11388;54.456;9.752;2024-01-07T22:04:58;4.72;;;3.00;;
22441;SDS011;11388;54.456;9.752;2024-01-07T22:07:41;7.50;;;3.20;;
22441;SDS011;11388;54.456;9.752;2024-01-07T22:10:12;4.20;;;2.60;;
22441;SDS011;11388;54.456;9.752;2024-01-07T22:12:50;6.57;;;2.58;;
22441;SDS011;11388;54.456;9.752;2024-01-07T22:15:24;4.28;;;2.80;;
22441;SDS011;11388;54.456;9.752;2024-01-07T22:17:55;4.97;;;2.78;;
22441;SDS011;11388;54.456;9.752;2024-01-07T22:20:21;4.50;;;2.40;;
22441;SDS011;11388;54.456;9.752;2024-01-07T22:22:54;4.55;;;2.80;;
22441;SDS011;11388;54.456;9.752;2024-01-07T22:25:20;4.30;;;2.65;;
22441;SDS011;11388;54.456;9.752;2024-01-07T22:27:49;4.85;;;2.50;;
22441;SDS011;11388;54.456;9.752;2024-01-07T22:30:17;5.32;;;2.40;;
22441;SDS011;11388;54.456;9.752;2024-01-07T22:32:48;4.30;;;2.50;;
22441;SDS011;11388;54.456;9.752;2024-01-07T22:35:14;3.80;;;2.28;;
22441;SDS011;11388;54.456;9.752;2024-01-07T22:37:52;5.05;;;2.50;;
22441;SDS011;11388;54.456;9.752;2024-01-07T22:40:20;4.32;;;2.40;;
22441;SDS011;11388;54.456;9.752;2024-01-07T22:42:48;4.00;;;2.38;;
22441;SDS011;11388;54.456;9.752;2024-01-07T22:45:14;4.18;;;2.33;;
22441;SDS011;11388;54.456;9.752;2024-01-07T22:47:40;3.53;;;2.05;;
22441;SDS011;11388;54.456;9.752;2024-01-07T22:50:11;3.85;;;2.28;;
22441;SDS011;11388;54.456;9.752;2024-01-07T22:52:44;3.55;;;2.00;;
22441;SDS011;11388;54.456;9.752;2024-01-07T22:55:16;3.42;;;1.90;;
22441;SDS011;11388;54.456;9.752;2024-01-07T22:57:49;4.85;;;2.53;;
22441;SDS011;11388;54.456;9.752;2024-01-07T23:00:20;3.42;;;2.15;;
22441;SDS011;11388;54.456;9.752;2024-01-07T23:02:52;3.45;;;2.10;;
22441;SDS011;11388;54.456;9.752;2024-01-07T23:05:25;3.40;;;2.08;;
22441;SDS011;11388;54.456;9.752;2024-01-07T23:07:56;3.55;;;2.30;;
22441;SDS011;11388;54.456;9.752;2024-01-07T23:10:22;5.00;;;2.50;;
22441;SDS011;11388;54.456;9.752;2024-01-07T23:12:51;3.20;;;2.10;;
22441;SDS011;11388;54.456;9.752;2024-01-07T23:15:29;5.25;;;2.25;;
22441;SDS011;11388;54.456;9.752;2024-01-07T23:17:57;4.05;;;2.20;;
22441;SDS011;11388;54.456;9.752;2024-01-07T23:20:34;5.38;;;2.45;;
22441;SDS011;11388;54.456;9.752;2024-01-07T23:23:00;5.13;;;2.10;;
22441;SDS011;11388;54.456;9.752;2024-01-07T23:25:29;3.97;;;2.10;;
22441;SDS011;11388;54.456;9.752;2024-01-07T23:27:54;4.60;;;2.47;;
22441;SDS011;11388;54.456;9.752;2024-01-07T23:30:28;5.53;;;2.30;;
22441;SDS011;11388;54.456;9.752;2024-01-07T23:33:05;3.50;;;2.10;;
22441;SDS011;11388;54.456;9.752;2024-01-07T23:35:31;3.38;;;2.03;;
22441;SDS011;11388;54.456;9.752;2024-01-07T23:37:59;3.92;;;2.08;;
22441;SDS011;11388;54.456;9.752;2024-01-07T23:40:32;4.03;;;2.30;;
22441;SDS011;11388;54.456;9.752;2024-01-07T23:43:26;4.05;;;2.15;;
22441;SDS011;11388;54.456;9.752;2024-01-07T23:45:55;3.63;;;2.20;;
22441;SDS011;11388;54.456;9.752;2024-01-07T23:48:21;4.10;;;2.20;;
22441;SDS011;11388;54.456;9.752;2024-01-07T23:50:53;4.07;;;1.88;;
22441;SDS011;11388;54.456;9.752;2024-01-07T23:53:21;2.85;;;1.80;;
22441;SDS011;11388;54.456;9.752;2024-01-07T23:55:47;3.83;;;1.92;;
22441;SDS011;11388;54.456;9.752;2024-01-07T23:58:15;5.05;;;2.13;;
